Bay View, Wisconsin
Current Conditions -  °F | °C
As of 8:52 PM on Saturday 22 Nov 2014 (Local Time) from KMKE Reporting Station
Light Fog Light Fog  
Wind Chill: 34°   Ceiling: 4100
Heat Index: 38°   Visibility: 3mi
Dew Point: 37°   Wind: 5mph
Humidity: 97%   Direction: 190°S
Pressure: 29.81"   Gusts: NA
Location:  42.9716°N, 87.9016°W
Report Text: KMKE 230252Z 19004KT 3SM BCFG BR BKN041 03/03 A2981 RMK AO2 SLP100 T00330028 58003
Loading
Personal Weather Stations






























Interactive Weather Map New forecast layout! Learn more

10-Day Weather Forecast

Advertisements
Track Severe Weather on mobile